Time;durP1;ratioP1;P1;durP2;ratioP2;P2;SDS_P1;SDS_P2;PMS_P1;PMS_P2;Temp;Humidity;BMP_temperature;BMP_pressure;BME280_temperature;BME280_humidity;BME280_pressure;Samples;Min_cycle;Max_cycle;Signal;HPM_P1;HPM_P2
2023/08/22 00:01:55;;;;;;;5.57;4.17;;;;;;;26.61;78.95;100619.06;5090369;28;20178;-63
2023/08/22 00:04:21;;;;;;;5.30;4.20;;;;;;;26.62;78.71;100614.09;5110506;27;20184;-64
2023/08/22 00:06:46;;;;;;;7.50;4.20;;;;;;;26.61;78.88;100612.44;5110818;28;20173;-63
2023/08/22 00:09:12;;;;;;;4.40;3.70;;;;;;;26.61;78.84;100624.03;5098656;28;20527;-63
2023/08/22 00:11:37;;;;;;;5.30;4.07;;;;;;;26.60;78.59;100616.59;5091065;28;20178;-63
2023/08/22 00:14:02;;;;;;;6.73;4.70;;;;;;;26.60;78.31;100623.19;5095637;28;20280;-63
2023/08/22 00:16:28;;;;;;;4.80;3.93;;;;;;;26.60;79.01;100617.41;5118644;27;20177;-63
2023/08/22 00:18:53;;;;;;;6.80;4.37;;;;;;;26.60;78.43;100611.63;5131713;27;20168;-63
2023/08/22 00:21:19;;;;;;;5.77;4.77;;;;;;;26.59;78.49;100615.75;5096644;27;20738;-63
2023/08/22 00:23:44;;;;;;;6.90;4.33;;;;;;;26.58;78.72;100605.44;5089836;28;20166;-63
2023/08/22 00:26:10;;;;;;;5.60;3.90;;;;;;;26.59;78.89;100609.97;5091308;28;20185;-63
2023/08/22 00:28:35;;;;;;;5.87;4.23;;;;;;;26.59;78.35;100615.75;5089320;28;20162;-64
2023/08/22 00:31:01;;;;;;;6.70;3.80;;;;;;;26.58;78.72;100608.34;5089021;28;20182;-63
2023/08/22 00:33:26;;;;;;;7.33;4.53;;;;;;;26.59;79.03;100609.97;5092963;28;20177;-63
2023/08/22 00:35:51;;;;;;;4.50;3.77;;;;;;;26.58;78.31;100601.72;5092601;27;20193;-64
2023/08/22 00:38:17;;;;;;;5.20;3.97;;;;;;;26.59;78.99;100604.19;5124536;27;20183;-63
2023/08/22 00:40:42;;;;;;;7.50;4.60;;;;;;;26.59;78.34;100598.38;5091078;28;20155;-64
2023/08/22 00:43:08;;;;;;;4.77;3.87;;;;;;;26.59;78.89;100606.28;5106582;28;20170;-64
2023/08/22 00:45:33;;;;;;;5.20;4.07;;;;;;;26.59;79.06;100604.19;5074368;28;20172;-64
2023/08/22 00:47:59;;;;;;;4.40;3.90;;;;;;;26.59;78.76;100589.69;5090514;28;20189;-63
2023/08/22 00:50:24;;;;;;;5.20;4.13;;;;;;;26.59;78.77;100592.59;5090639;28;20194;-63
2023/08/22 00:52:50;;;;;;;6.27;4.07;;;;;;;26.58;78.33;100602.53;5092873;27;20178;-64
2023/08/22 00:55:15;;;;;;;5.63;4.43;;;;;;;26.57;78.65;100589.31;5102911;28;20214;-63
2023/08/22 00:57:41;;;;;;;5.97;4.60;;;;;;;26.58;78.47;100602.53;5111056;28;20175;-62
2023/08/22 01:00:37;;;;;;;5.63;3.57;;;;;;;26.58;78.54;100588.06;5096806;28;20771;-63
2023/08/22 01:03:03;;;;;;;6.30;4.27;;;;;;;26.58;78.78;100590.97;5090540;28;20266;-63
2023/08/22 01:05:28;;;;;;;5.10;3.77;;;;;;;26.57;78.31;100589.31;5090935;28;21278;-63
2023/08/22 01:07:59;;;;;;;4.97;3.73;;;;;;;26.57;78.28;100598.00;5109890;28;20165;-64
2023/08/22 01:10:28;;;;;;;5.23;3.80;;;;;;;26.57;78.34;100585.59;5102650;28;20175;-63
2023/08/22 01:13:26;;;;;;;5.07;3.93;;;;;;;26.56;78.27;100581.88;5062990;28;20428;-64
2023/08/22 01:15:51;;;;;;;5.23;4.30;;;;;;;26.57;78.11;100589.31;5075738;27;20479;-63
2023/08/22 01:18:18;;;;;;;6.47;4.40;;;;;;;26.56;78.65;100590.56;5115880;27;20813;-64
2023/08/22 01:20:44;;;;;;;6.70;4.10;;;;;;;26.57;78.13;100603.81;5109233;28;20534;-63
2023/08/22 01:23:09;;;;;;;4.73;4.10;;;;;;;26.57;78.05;100600.06;5108437;28;20454;-63
2023/08/22 01:25:35;;;;;;;5.23;4.20;;;;;;;26.55;78.34;100603.38;5091558;28;20615;-63
2023/08/22 01:28:24;;;;;;;6.87;3.83;;;;;;;26.56;77.93;100590.56;5053988;28;20654;-63
2023/08/22 01:30:57;;;;;;;4.70;4.20;;;;;;;26.56;78.00;100576.09;5091359;28;20183;-62
2023/08/22 01:33:53;;;;;;;5.00;4.00;;;;;;;26.56;78.60;100583.94;5089087;28;20440;-64
2023/08/22 01:36:19;;;;;;;8.17;4.50;;;;;;;26.56;78.71;100581.88;5095248;27;20439;-64
2023/08/22 01:38:44;;;;;;;5.60;3.70;;;;;;;26.55;78.50;100574.41;5125772;27;20429;-63
2023/08/22 01:41:09;;;;;;;5.03;3.83;;;;;;;26.56;78.45;100581.88;5108162;28;20165;-63
2023/08/22 01:43:36;;;;;;;5.90;4.17;;;;;;;26.55;78.17;100579.38;5073080;28;20200;-63
2023/08/22 01:46:02;;;;;;;5.40;3.97;;;;;;;26.55;78.26;100590.97;5112363;27;20763;-64
2023/08/22 01:48:27;;;;;;;5.00;3.83;;;;;;;26.54;78.42;100583.53;5107741;27;20432;-63
2023/08/22 01:50:53;;;;;;;5.10;3.37;;;;;;;26.54;77.93;100584.34;5108899;28;20158;-63
2023/08/22 01:53:18;;;;;;;6.00;4.53;;;;;;;26.55;78.58;100585.19;5107193;28;20162;-63
2023/08/22 01:55:44;;;;;;;7.50;4.07;;;;;;;26.54;78.45;100590.13;5106646;28;20217;-63
2023/08/22 01:58:11;;;;;;;4.70;3.67;;;;;;;26.54;77.88;100589.31;5108247;28;20174;-62
2023/08/22 02:00:39;;;;;;;5.80;4.47;;;;;;;26.54;77.85;100583.53;5098221;28;20267;-62
2023/08/22 02:03:05;;;;;;;6.10;4.10;;;;;;;26.53;78.46;100585.59;5090385;28;20852;-63
2023/08/22 02:05:30;;;;;;;6.50;4.40;;;;;;;26.54;78.15;100583.53;5103504;27;20476;-63
2023/08/22 02:07:55;;;;;;;4.53;4.00;;;;;;;26.53;77.90;100582.69;5129282;27;20249;-63
2023/08/22 02:10:21;;;;;;;4.07;3.67;;;;;;;26.53;78.02;100578.97;5128820;27;20173;-63
2023/08/22 02:12:46;;;;;;;6.27;4.37;;;;;;;26.53;77.57;100571.13;5088912;28;20185;-63
2023/08/22 02:15:12;;;;;;;5.90;4.10;;;;;;;26.53;77.67;100579.81;5108194;28;20228;-63
2023/08/22 02:17:38;;;;;;;5.43;3.47;;;;;;;26.53;78.16;100579.81;5102007;27;20240;-63
2023/08/22 02:20:05;;;;;;;6.80;3.90;;;;;;;26.53;78.14;100579.81;5087978;28;20260;-63
2023/08/22 02:22:30;;;;;;;5.13;3.80;;;;;;;26.52;77.75;100575.28;5087941;28;20428;-63
2023/08/22 02:24:56;;;;;;;6.13;4.17;;;;;;;26.53;78.21;100574.00;5087949;28;20412;-64
2023/08/22 02:27:21;;;;;;;4.97;3.60;;;;;;;26.52;77.63;100569.47;5098373;27;20180;-63
2023/08/22 02:29:47;;;;;;;5.97;4.57;;;;;;;26.52;78.11;100578.16;5108869;28;20180;-63
2023/08/22 02:32:12;;;;;;;4.57;3.83;;;;;;;26.53;77.72;100576.06;5090864;28;20173;-63
2023/08/22 02:34:37;;;;;;;4.73;3.90;;;;;;;26.52;77.76;100586.00;5090310;28;20206;-63
2023/08/22 02:37:03;;;;;;;5.20;3.50;;;;;;;26.52;77.78;100581.06;5106122;28;20177;-63
2023/08/22 02:39:29;;;;;;;7.07;4.07;;;;;;;26.52;78.09;100583.13;5109097;28;20182;-64
2023/08/22 02:41:54;;;;;;;4.80;3.70;;;;;;;26.51;77.91;100585.22;5096134;28;20186;-63
2023/08/22 02:44:20;;;;;;;4.63;3.30;;;;;;;26.52;77.47;100581.06;5099203;28;20177;-63
2023/08/22 02:46:45;;;;;;;4.83;3.80;;;;;;;26.51;77.62;100591.00;5108237;27;20188;-63
2023/08/22 02:49:11;;;;;;;4.53;3.80;;;;;;;26.52;77.50;100581.06;5107998;28;20620;-63
2023/08/22 02:51:36;;;;;;;4.17;3.50;;;;;;;26.52;78.19;100589.75;5107960;28;20518;-63
2023/08/22 02:54:02;;;;;;;4.63;3.60;;;;;;;26.51;77.97;100579.41;5076053;28;20632;-63
2023/08/22 02:56:27;;;;;;;5.40;4.00;;;;;;;26.50;77.53;100571.97;5107756;28;20200;-63
2023/08/22 02:58:53;;;;;;;5.30;3.47;;;;;;;26.52;77.43;100571.53;5103974;28;20178;-63
2023/08/22 03:01:18;;;;;;;5.23;3.57;;;;;;;26.51;78.13;100567.84;5069876;28;20194;-63
2023/08/22 03:03:49;;;;;;;7.70;3.70;;;;;;;26.51;77.85;100564.94;5088357;28;20185;-63
2023/08/22 03:06:14;;;;;;;7.60;3.93;;;;;;;26.50;77.74;100571.97;5104632;28;20276;-63
2023/08/22 03:08:40;;;;;;;4.87;3.10;;;;;;;26.51;77.37;100572.78;5108428;28;20419;-63
2023/08/22 03:11:05;;;;;;;4.73;3.30;;;;;;;26.50;77.77;100566.16;5102038;28;20532;-63
2023/08/22 03:13:31;;;;;;;6.00;3.50;;;;;;;26.50;78.01;100563.28;5087136;28;20552;-63
2023/08/22 03:15:58;;;;;;;5.10;3.93;;;;;;;26.50;77.86;100566.16;5097284;28;20197;-63
2023/08/22 03:18:24;;;;;;;5.00;3.50;;;;;;;26.51;77.25;100569.91;5090057;28;20182;-63
2023/08/22 03:20:50;;;;;;;4.67;3.80;;;;;;;26.50;77.31;100571.97;5086741;28;20472;-63
2023/08/22 03:23:16;;;;;;;4.50;4.00;;;;;;;26.50;77.58;100571.97;5070800;28;20452;-63
2023/08/22 03:25:41;;;;;;;4.73;3.60;;;;;;;26.49;77.28;100567.41;5088020;28;20405;-63
2023/08/22 03:28:07;;;;;;;4.50;3.17;;;;;;;26.49;77.79;100570.31;5069944;28;20162;-63
2023/08/22 03:30:32;;;;;;;5.90;3.80;;;;;;;26.49;77.95;100569.53;5090724;28;20178;-62
2023/08/22 03:32:58;;;;;;;4.90;3.67;;;;;;;26.49;77.78;100564.53;5098892;28;20186;-63
2023/08/22 03:35:23;;;;;;;6.03;3.73;;;;;;;26.48;77.06;100574.47;5089945;28;20193;-64
2023/08/22 03:37:48;;;;;;;4.57;3.50;;;;;;;26.47;77.58;100569.94;5108349;28;20589;-64
2023/08/22 03:40:14;;;;;;;4.47;3.43;;;;;;;26.48;77.66;100568.69;5108104;28;20662;-64
2023/08/22 03:42:39;;;;;;;4.60;3.30;;;;;;;26.47;77.25;100567.03;5108910;28;20555;-63
2023/08/22 03:45:05;;;;;;;4.83;3.50;;;;;;;26.48;77.57;100567.84;5128952;28;20157;-63
2023/08/22 03:47:31;;;;;;;5.80;3.90;;;;;;;26.48;77.62;100567.84;5113061;28;20189;-63
2023/08/22 03:49:56;;;;;;;5.80;3.50;;;;;;;26.47;77.59;100569.94;5105945;28;20435;-63
2023/08/22 03:52:22;;;;;;;7.20;4.00;;;;;;;26.47;77.32;100572.84;5089743;28;20177;-65
2023/08/22 03:54:47;;;;;;;4.20;3.33;;;;;;;26.45;76.98;100569.53;5093597;28;20193;-63
2023/08/22 03:57:13;;;;;;;4.87;3.30;;;;;;;26.47;77.00;100569.94;5106325;28;20183;-64
2023/08/22 03:59:38;;;;;;;4.20;3.03;;;;;;;26.46;77.61;100571.19;5092524;28;20216;-63
2023/08/22 04:02:03;;;;;;;4.50;3.50;;;;;;;26.46;77.25;100571.19;5087346;28;20178;-64
2023/08/22 04:04:29;;;;;;;5.50;3.57;;;;;;;26.46;77.11;100565.41;5069094;28;20171;-63
2023/08/22 04:06:54;;;;;;;4.27;3.37;;;;;;;26.45;77.55;100569.53;5085579;28;20178;-63
2023/08/22 04:09:20;;;;;;;5.60;3.80;;;;;;;26.45;77.02;100575.31;5088074;28;20190;-62
2023/08/22 04:11:45;;;;;;;4.23;3.33;;;;;;;26.45;76.92;100577.41;5123274;28;20181;-63
2023/08/22 04:14:11;;;;;;;4.43;3.80;;;;;;;26.44;77.05;100576.56;5126824;28;20177;-64
2023/08/22 04:16:36;;;;;;;4.50;3.60;;;;;;;26.45;77.12;100583.19;5118495;28;20186;-63
2023/08/22 04:19:02;;;;;;;6.27;3.40;;;;;;;26.44;76.97;100581.56;5101902;28;20193;-64
2023/08/22 04:21:27;;;;;;;8.10;4.00;;;;;;;26.44;76.83;100588.16;5110021;28;20554;-64
2023/08/22 04:23:53;;;;;;;7.70;3.43;;;;;;;26.44;76.71;100593.94;5107415;28;20451;-64
2023/08/22 04:26:18;;;;;;;4.17;3.50;;;;;;;26.45;77.11;100604.28;5111247;28;20165;-62
2023/08/22 04:28:44;;;;;;;4.93;3.60;;;;;;;26.43;77.14;100598.09;5110700;28;20641;-63
2023/08/22 04:31:09;;;;;;;4.43;4.00;;;;;;;26.44;76.63;100596.84;5107187;28;20641;-63
2023/08/22 04:33:35;;;;;;;4.37;3.40;;;;;;;26.43;77.05;100598.09;5110627;28;20765;-62
2023/08/22 04:36:00;;;;;;;5.30;3.80;;;;;;;26.43;77.17;100595.22;5109245;27;20481;-64
2023/08/22 04:38:26;;;;;;;5.47;3.90;;;;;;;26.43;76.87;100597.28;5127822;27;20180;-63
2023/08/22 04:40:51;;;;;;;4.90;3.73;;;;;;;26.43;76.94;100595.22;5129041;27;20194;-63
2023/08/22 04:43:17;;;;;;;3.90;3.30;;;;;;;26.42;77.30;100602.25;5130929;27;20172;-63
2023/08/22 04:45:42;;;;;;;6.03;3.50;;;;;;;26.42;76.60;100599.34;5100645;27;20185;-63
2023/08/22 04:48:08;;;;;;;5.87;3.77;;;;;;;26.42;76.62;100613.00;5113462;27;20173;-63
2023/08/22 04:50:33;;;;;;;4.63;4.13;;;;;;;26.41;76.84;100609.31;5110571;27;20262;-63
2023/08/22 04:52:59;;;;;;;7.77;3.17;;;;;;;26.41;76.58;100608.47;5111265;28;20178;-62
2023/08/22 04:55:24;;;;;;;3.87;3.10;;;;;;;26.41;76.70;100615.09;5090196;28;20210;-64
2023/08/22 04:57:50;;;;;;;3.87;3.20;;;;;;;26.41;76.32;100608.47;5110644;28;20178;-64
2023/08/22 05:00:16;;;;;;;5.83;3.67;;;;;;;26.41;76.54;100609.31;5109284;27;20232;-63
2023/08/22 05:02:42;;;;;;;4.90;3.23;;;;;;;26.40;76.88;100613.44;5109926;28;20645;-63
2023/08/22 05:05:10;;;;;;;6.63;3.63;;;;;;;26.40;76.33;100598.94;5104477;28;20440;-63
2023/08/22 05:07:35;;;;;;;5.80;3.60;;;;;;;26.40;76.90;100607.63;5089502;28;20185;-62
2023/08/22 05:10:02;;;;;;;5.83;3.77;;;;;;;26.40;76.81;100601.84;5089455;28;20404;-63
2023/08/22 05:12:27;;;;;;;4.33;3.70;;;;;;;26.40;76.83;100615.50;5102245;27;20185;-63
2023/08/22 05:14:52;;;;;;;5.17;3.90;;;;;;;26.40;76.16;100606.84;5116344;27;20474;-63
2023/08/22 05:17:18;;;;;;;5.00;3.90;;;;;;;26.40;76.55;100603.94;5124744;27;20192;-63
2023/08/22 05:19:44;;;;;;;5.30;3.73;;;;;;;26.40;76.46;100609.72;5122331;27;20271;-63
2023/08/22 05:22:09;;;;;;;5.07;3.40;;;;;;;26.39;76.24;100614.69;5090254;28;20565;-63
2023/08/22 05:24:36;;;;;;;4.27;3.20;;;;;;;26.39;76.12;100610.97;5090181;28;20174;-63
2023/08/22 05:27:01;;;;;;;6.43;3.73;;;;;;;26.38;76.15;100615.94;5104455;27;20189;-64
2023/08/22 05:29:27;;;;;;;4.57;3.33;;;;;;;26.38;76.81;100610.16;5110765;28;20423;-62
2023/08/22 05:31:53;;;;;;;3.97;3.47;;;;;;;26.38;76.61;100610.16;5105359;28;20190;-63
2023/08/22 05:34:18;;;;;;;5.80;3.67;;;;;;;26.38;76.15;100613.03;5089830;28;20486;-63
2023/08/22 05:36:44;;;;;;;3.53;3.20;;;;;;;26.38;76.26;100618.84;5089819;28;20175;-63
2023/08/22 05:39:10;;;;;;;5.23;3.40;;;;;;;26.38;76.24;100615.94;5089332;28;20174;-63
2023/08/22 05:41:36;;;;;;;8.20;3.50;;;;;;;26.38;76.66;100610.16;5091512;28;20182;-62
2023/08/22 05:44:01;;;;;;;3.43;3.10;;;;;;;26.39;76.27;100616.78;5089213;28;20775;-63
2023/08/22 05:46:27;;;;;;;4.93;3.97;;;;;;;26.38;76.30;100618.84;5089027;28;20224;-62
2023/08/22 05:48:52;;;;;;;4.73;3.40;;;;;;;26.39;76.68;100611.78;5091241;28;20272;-63
2023/08/22 05:51:18;;;;;;;4.87;3.57;;;;;;;26.38;76.63;100615.94;5094455;27;20185;-63
2023/08/22 05:53:43;;;;;;;4.90;3.30;;;;;;;26.38;76.04;100621.72;5128359;27;20177;-63
2023/08/22 05:56:09;;;;;;;5.73;3.63;;;;;;;26.38;76.40;100620.91;5106528;27;20227;-63
2023/08/22 05:58:34;;;;;;;5.10;3.93;;;;;;;26.39;76.53;100634.16;5087452;28;20224;-63
2023/08/22 06:01:07;;;;;;;5.67;4.00;;;;;;;26.38;76.59;100632.47;5087710;28;20166;-62
2023/08/22 06:03:33;;;;;;;4.20;3.10;;;;;;;26.38;76.23;100627.53;5087534;28;20190;-63
2023/08/22 06:05:58;;;;;;;5.00;3.40;;;;;;;26.39;76.55;100634.16;5077470;28;20766;-63
2023/08/22 06:08:24;;;;;;;4.63;3.33;;;;;;;26.38;76.20;100644.06;5092443;28;20178;-63
2023/08/22 06:10:49;;;;;;;5.50;3.57;;;;;;;26.37;76.62;100642.41;5089215;28;20178;-63
2023/08/22 06:13:15;;;;;;;5.87;4.43;;;;;;;26.38;76.19;100644.91;5089098;28;20170;-63
2023/08/22 06:15:40;;;;;;;4.47;3.70;;;;;;;26.38;76.65;100646.94;5090249;27;20238;-64
2023/08/22 06:18:06;;;;;;;5.80;4.20;;;;;;;26.38;76.09;100644.06;5096305;27;20204;-64
2023/08/22 06:20:31;;;;;;;4.40;3.60;;;;;;;26.37;76.43;100649.03;5129818;27;20225;-63
2023/08/22 06:22:57;;;;;;;5.30;3.63;;;;;;;26.38;76.69;100656.47;5100761;27;20186;-63
2023/08/22 06:25:22;;;;;;;4.10;3.10;;;;;;;26.37;76.66;100654.84;5088926;28;20224;-63
2023/08/22 06:27:48;;;;;;;4.90;3.80;;;;;;;26.38;76.27;100659.38;5089033;28;20182;-63
2023/08/22 06:30:13;;;;;;;5.80;3.90;;;;;;;26.36;76.19;100650.31;5088882;28;20174;-65
2023/08/22 06:32:39;;;;;;;4.90;3.73;;;;;;;26.33;75.06;100654.03;5094005;27;20186;-65
2023/08/22 06:35:05;;;;;;;6.23;4.00;;;;;;;26.29;74.52;100659.03;5110927;27;20206;-65
2023/08/22 06:37:30;;;;;;;5.20;3.83;;;;;;;26.24;74.21;100653.69;5086542;28;20189;-64
2023/08/22 06:39:55;;;;;;;7.60;4.40;;;;;;;26.22;74.41;100659.09;5109037;28;20461;-62
2023/08/22 06:42:21;;;;;;;5.83;4.60;;;;;;;26.23;74.35;100654.94;5103711;28;20262;-64
2023/08/22 06:44:46;;;;;;;10.23;4.60;;;;;;;26.24;75.17;100650.00;5089942;28;20755;-65
2023/08/22 06:47:12;;;;;;;9.20;5.03;;;;;;;26.23;74.48;100649.16;5114913;27;20189;-64
2023/08/22 06:49:37;;;;;;;5.30;3.83;;;;;;;26.23;74.94;100646.25;5128469;27;20197;-64
2023/08/22 06:52:03;;;;;;;6.90;4.57;;;;;;;26.23;74.49;100648.31;5117724;27;20216;-63
2023/08/22 06:54:30;;;;;;;7.40;4.70;;;;;;;26.22;75.12;100653.31;5107782;28;20205;-64
2023/08/22 06:56:55;;;;;;;8.77;4.70;;;;;;;26.23;75.20;100649.16;5107780;28;20973;-64
2023/08/22 06:59:20;;;;;;;7.67;4.90;;;;;;;26.21;74.88;100654.56;5108400;28;20415;-64
2023/08/22 07:01:46;;;;;;;9.30;4.53;;;;;;;26.22;75.47;100653.31;5099830;28;20185;-65
2023/08/22 07:04:11;;;;;;;6.23;4.70;;;;;;;26.23;75.01;100654.94;5072175;28;20244;-64
2023/08/22 07:06:37;;;;;;;6.87;4.57;;;;;;;26.23;75.42;100654.09;5090473;28;20201;-64
2023/08/22 07:09:03;;;;;;;5.70;4.50;;;;;;;26.23;75.00;100659.91;5110953;28;20199;-64
2023/08/22 07:11:28;;;;;;;8.57;5.10;;;;;;;26.22;75.28;100658.25;5125711;27;20280;-64
2023/08/22 07:13:54;;;;;;;11.50;4.80;;;;;;;26.22;75.59;100655.34;5098466;28;20734;-64
2023/08/22 07:16:19;;;;;;;6.60;5.30;;;;;;;26.22;75.82;100662.00;5073454;28;20209;-65
2023/08/22 07:18:45;;;;;;;6.77;4.57;;;;;;;26.22;75.71;100658.25;5108488;28;20937;-64
2023/08/22 07:21:10;;;;;;;8.10;4.73;;;;;;;26.23;75.27;100659.91;5107604;28;20228;-65
2023/08/22 07:23:36;;;;;;;9.27;4.93;;;;;;;26.23;75.93;100663.63;5102725;28;20574;-63
2023/08/22 07:26:01;;;;;;;7.37;4.60;;;;;;;26.23;75.84;100662.78;5089509;28;20890;-65
2023/08/22 07:28:27;;;;;;;6.43;5.17;;;;;;;26.23;75.28;100666.53;5101774;28;20174;-65
2023/08/22 07:30:53;;;;;;;5.40;4.23;;;;;;;26.24;75.84;100668.16;5089886;28;20170;-66
2023/08/22 07:33:19;;;;;;;4.77;4.10;;;;;;;26.25;75.55;100666.09;5070200;28;20666;-64
2023/08/22 07:35:44;;;;;;;11.80;4.53;;;;;;;26.25;76.04;100664.00;5088421;28;20551;-64
2023/08/22 07:38:10;;;;;;;6.37;4.60;;;;;;;26.29;76.50;100664.00;5090322;28;20217;-64
2023/08/22 07:40:39;;;;;;;9.07;5.40;;;;;;;26.31;78.11;100664.41;5087320;28;20197;-65
2023/08/22 07:43:05;;;;;;;7.80;4.50;;;;;;;26.32;78.45;100663.13;5098861;28;20190;-65
2023/08/22 07:45:30;;;;;;;7.40;5.30;;;;;;;26.34;78.17;100669.34;5086364;28;20404;-65
2023/08/22 07:47:56;;;;;;;9.33;5.20;;;;;;;26.33;77.49;100668.50;5086369;28;20171;-65
2023/08/22 07:50:21;;;;;;;5.80;5.20;;;;;;;26.33;77.88;100677.19;5086095;28;20198;-66
2023/08/22 07:52:46;;;;;;;7.30;5.00;;;;;;;26.33;77.33;100677.19;5094565;28;20581;-64
2023/08/22 07:55:12;;;;;;;9.00;5.90;;;;;;;26.32;76.84;100681.34;5104755;28;20217;-65
2023/08/22 07:57:37;;;;;;;9.93;5.87;;;;;;;26.33;77.06;100676.38;5091564;28;20698;-63
2023/08/22 08:00:11;;;;;;;7.47;5.30;;;;;;;26.33;77.06;100683.00;5090890;28;20224;-63
2023/08/22 08:02:40;;;;;;;10.67;5.27;;;;;;;26.33;77.28;100677.19;5092975;28;20220;-66
2023/08/22 08:05:06;;;;;;;7.93;6.37;;;;;;;26.31;77.55;100671.03;5090880;28;20470;-66
2023/08/22 08:07:32;;;;;;;8.70;5.73;;;;;;;26.33;77.60;100676.38;5102594;28;20423;-65
2023/08/22 08:09:58;;;;;;;7.00;6.13;;;;;;;26.35;77.65;100682.56;5088844;28;20435;-64
2023/08/22 08:12:23;;;;;;;8.87;5.43;;;;;;;26.34;78.28;100675.13;5089980;28;20177;-65
2023/08/22 08:14:49;;;;;;;7.50;5.90;;;;;;;26.34;77.87;100672.25;5097431;27;20317;-64
2023/08/22 08:17:17;;;;;;;8.90;5.70;;;;;;;26.34;77.95;100684.63;5117750;27;20182;-65
2023/08/22 08:19:43;;;;;;;11.27;6.27;;;;;;;26.34;77.50;100684.63;5103978;28;20222;-63
2023/08/22 08:22:08;;;;;;;18.43;8.00;;;;;;;26.35;78.68;100692.06;5072692;28;20511;-63
2023/08/22 08:24:33;;;;;;;13.10;7.83;;;;;;;26.36;80.18;100682.16;5092223;28;20162;-64
2023/08/22 08:27:00;;;;;;;15.70;8.00;;;;;;;26.38;80.75;100687.50;5092054;28;20211;-65
2023/08/22 08:29:26;;;;;;;13.40;7.20;;;;;;;26.39;79.85;100686.28;5112507;27;20419;-64
2023/08/22 08:31:54;;;;;;;15.10;8.33;;;;;;;26.39;79.39;100681.28;5098546;28;20190;-65
2023/08/22 08:34:19;;;;;;;12.47;7.93;;;;;;;26.39;79.94;100677.59;5106353;27;20270;-64
2023/08/22 08:36:44;;;;;;;13.07;8.00;;;;;;;26.39;80.10;100675.50;5106239;28;20440;-62
2023/08/22 08:39:10;;;;;;;12.30;9.20;;;;;;;26.40;80.19;100671.34;5110444;28;20158;-65
2023/08/22 08:41:37;;;;;;;12.13;8.30;;;;;;;26.41;80.27;100675.91;5109639;28;20170;-63
2023/08/22 08:44:03;;;;;;;16.33;8.73;;;;;;;26.42;80.14;100677.53;5086801;28;20177;-64
2023/08/22 08:46:29;;;;;;;14.77;8.80;;;;;;;26.41;79.97;100678.81;5083397;28;20653;-64
2023/08/22 08:48:55;;;;;;;20.77;9.17;;;;;;;26.43;80.06;100675.47;5124982;27;20203;-64
2023/08/22 08:51:21;;;;;;;13.13;8.77;;;;;;;26.44;80.85;100677.94;5115597;27;20434;-64
2023/08/22 08:53:47;;;;;;;21.17;10.07;;;;;;;26.44;80.40;100672.13;5091072;28;20181;-64
2023/08/22 08:56:14;;;;;;;12.43;8.77;;;;;;;26.44;79.83;100680.03;5073723;28;21106;-63
2023/08/22 08:58:39;;;;;;;11.87;8.67;;;;;;;26.42;78.56;100668.84;5091749;28;20420;-63
2023/08/22 09:01:06;;;;;;;11.00;9.03;;;;;;;26.45;77.13;100675.88;5088923;28;20421;-63
2023/08/22 09:03:31;;;;;;;24.43;9.97;;;;;;;26.45;77.17;100668.00;5090011;27;20288;-64
2023/08/22 09:05:56;;;;;;;16.80;9.30;;;;;;;26.44;77.71;100675.03;5077651;28;20421;-63
2023/08/22 09:08:23;;;;;;;13.30;9.40;;;;;;;26.43;77.64;100673.41;5089598;28;20700;-64
2023/08/22 09:10:52;;;;;;;13.33;8.17;;;;;;;26.43;77.31;100670.50;5124857;27;20191;-63
2023/08/22 09:13:28;;;;;;;12.23;8.70;;;;;;;26.45;76.71;100672.97;5127081;27;20501;-64
2023/08/22 09:16:00;;;;;;;15.50;9.03;;;;;;;26.44;76.81;100672.13;5107940;27;20953;-64
2023/08/22 09:18:26;;;;;;;15.47;8.33;;;;;;;26.44;76.86;100669.25;5127354;27;20410;-64
2023/08/22 09:20:52;;;;;;;10.33;8.70;;;;;;;26.44;77.07;100669.25;5130690;27;20561;-64
2023/08/22 09:23:27;;;;;;;9.10;7.50;;;;;;;26.45;76.48;100670.88;5130430;27;20495;-62
2023/08/22 09:25:52;;;;;;;11.00;8.30;;;;;;;26.43;76.90;100670.50;5100628;28;20205;-65
2023/08/22 09:28:18;;;;;;;14.43;8.50;;;;;;;26.44;76.84;100665.53;5089309;28;20423;-63
2023/08/22 09:30:48;;;;;;;12.00;8.30;;;;;;;26.43;77.15;100676.28;5056670;28;20255;-63
2023/08/22 09:33:13;;;;;;;9.30;7.33;;;;;;;26.43;76.73;100666.78;5089138;28;20165;-63
2023/08/22 09:35:39;;;;;;;10.57;7.40;;;;;;;26.42;77.51;100668.84;5088103;28;20511;-64
2023/08/22 09:38:08;;;;;;;10.40;7.70;;;;;;;26.43;76.83;100669.66;5088020;28;20210;-64
2023/08/22 09:40:33;;;;;;;10.83;7.83;;;;;;;26.42;77.45;100663.06;5090925;28;20190;-65
2023/08/22 09:43:00;;;;;;;14.13;8.20;;;;;;;26.42;77.20;100674.66;5091841;27;20474;-64
2023/08/22 09:45:26;;;;;;;11.17;7.60;;;;;;;26.42;77.47;100668.03;5109064;27;20236;-64
2023/08/22 09:47:51;;;;;;;9.47;7.83;;;;;;;26.43;76.76;100663.88;5095232;27;20432;-64
2023/08/22 09:50:16;;;;;;;12.13;8.13;;;;;;;26.42;77.23;100671.75;5086691;28;20451;-64
2023/08/22 09:52:42;;;;;;;11.00;7.60;;;;;;;26.42;76.80;100665.97;5061398;28;20201;-64
2023/08/22 09:55:08;;;;;;;12.20;7.20;;;;;;;26.42;76.57;100663.06;5097642;28;20232;-64
2023/08/22 09:57:33;;;;;;;11.93;7.60;;;;;;;26.42;76.82;100668.84;5064370;28;20190;-63
2023/08/22 09:59:59;;;;;;;10.10;7.40;;;;;;;26.43;76.40;100666.78;5070564;28;20247;-64
2023/08/22 10:02:25;;;;;;;9.90;7.30;;;;;;;26.43;76.93;100664.72;5089295;28;20174;-64
2023/08/22 10:04:50;;;;;;;12.30;8.40;;;;;;;26.44;76.37;100659.75;5071866;28;20747;-64
2023/08/22 10:07:16;;;;;;;10.27;8.03;;;;;;;26.43;76.86;100658.91;5089213;28;20847;-64
2023/08/22 10:09:42;;;;;;;10.07;7.67;;;;;;;26.44;76.88;100659.75;5108955;27;20180;-64
2023/08/22 10:12:12;;;;;;;10.47;6.87;;;;;;;26.44;77.02;100657.66;5118682;27;20268;-65
2023/08/22 10:14:49;;;;;;;8.63;6.77;;;;;;;26.45;76.55;100656.41;5070262;28;20206;-64
2023/08/22 10:17:14;;;;;;;8.13;6.43;;;;;;;26.45;76.88;100650.63;5081673;27;20594;-64
2023/08/22 10:19:41;;;;;;;8.40;6.70;;;;;;;26.45;76.84;100639.03;5128542;27;20543;-64
2023/08/22 10:22:07;;;;;;;9.67;7.27;;;;;;;26.46;76.78;100651.44;5103397;27;20190;-64
2023/08/22 10:24:33;;;;;;;8.70;6.50;;;;;;;26.46;76.57;100636.97;5088488;28;20416;-64
2023/08/22 10:27:02;;;;;;;7.60;6.23;;;;;;;26.45;76.19;100650.63;5090014;28;20546;-64
2023/08/22 10:29:30;;;;;;;9.33;7.17;;;;;;;26.45;75.63;100644.81;5088088;28;20228;-63
2023/08/22 10:32:02;;;;;;;7.70;6.90;;;;;;;26.46;75.82;100632.00;5086410;28;20510;-64
2023/08/22 10:34:38;;;;;;;6.93;6.20;;;;;;;26.45;76.27;100630.34;5121139;27;20458;-62
2023/08/22 10:37:04;;;;;;;8.43;6.60;;;;;;;26.46;75.92;100628.28;5070021;28;20461;-64
2023/08/22 10:39:37;;;;;;;8.20;6.10;;;;;;;26.46;76.37;100626.22;5086953;28;20440;-64
2023/08/22 10:42:02;;;;;;;9.20;7.03;;;;;;;26.46;75.77;100623.31;5090365;28;20985;-64
2023/08/22 10:44:30;;;;;;;7.80;6.90;;;;;;;26.46;75.96;100629.13;5089960;28;20429;-63
2023/08/22 10:47:00;;;;;;;11.57;6.33;;;;;;;26.48;76.13;100625.75;5109483;27;20177;-64
2023/08/22 10:49:29;;;;;;;7.93;6.23;;;;;;;26.48;75.46;100634.47;5106497;27;20467;-64
2023/08/22 10:52:11;;;;;;;8.80;6.40;;;;;;;26.47;76.12;100636.53;5089344;28;20427;-65
2023/08/22 10:55:00;;;;;;;7.90;6.20;;;;;;;26.48;76.04;100625.75;5099872;28;20625;-64
2023/08/22 10:57:45;;;;;;;8.03;6.33;;;;;;;26.48;75.40;100632.41;5074246;28;20440;-64
2023/08/22 11:00:23;;;;;;;6.43;5.73;;;;;;;26.49;75.61;100622.44;5082473;28;20470;-64
2023/08/22 11:02:56;;;;;;;9.40;5.73;;;;;;;26.49;75.59;100628.25;5088165;28;20448;-65
2023/08/22 11:05:22;;;;;;;9.33;5.67;;;;;;;26.50;75.70;100624.09;5104064;28;21231;-64
2023/08/22 11:07:48;;;;;;;7.17;5.30;;;;;;;26.51;75.07;100624.94;5097019;28;20424;-65
2023/08/22 11:10:20;;;;;;;7.10;5.70;;;;;;;26.49;74.80;100619.56;5107200;27;20289;-64
2023/08/22 11:12:46;;;;;;;8.47;5.77;;;;;;;26.50;75.10;100618.28;5101656;28;20436;-65
2023/08/22 11:15:13;;;;;;;6.17;5.30;;;;;;;26.50;74.92;100618.28;5105716;28;20458;-64
2023/08/22 11:17:40;;;;;;;7.30;5.97;;;;;;;26.52;74.63;100615.81;5082258;28;20185;-65
2023/08/22 11:20:09;;;;;;;7.30;5.73;;;;;;;26.51;74.80;100619.97;5126610;28;20964;-62
2023/08/22 11:22:35;;;;;;;8.00;5.93;;;;;;;26.52;74.72;100617.88;5107675;28;20992;-65